sensor_id;sensor_type;location;lat;lon;timestamp;pressure;altitude;pressure_sealevel;temperature;humidity
6425;BME280;12193;42.642;23.384;2023-02-17T00:00:20;95319.97;;;4.14;69.94
6425;BME280;12193;42.642;23.384;2023-02-17T00:02:53;95325.31;;;4.03;70.08
6425;BME280;12193;42.642;23.384;2023-02-17T00:05:23;95325.81;;;4.07;70.40
6425;BME280;12193;42.642;23.384;2023-02-17T00:07:53;95314.78;;;3.97;70.85
6425;BME280;12193;42.642;23.384;2023-02-17T00:10:22;95323.06;;;3.81;71.92
6425;BME280;12193;42.642;23.384;2023-02-17T00:12:55;95315.91;;;3.75;72.24
6425;BME280;12193;42.642;23.384;2023-02-17T00:15:24;95317.53;;;3.76;72.30
6425;BME280;12193;42.642;23.384;2023-02-17T00:17:53;95315.78;;;3.67;72.44
6425;BME280;12193;42.642;23.384;2023-02-17T00:20:22;95312.13;;;3.79;72.28
6425;BME280;12193;42.642;23.384;2023-02-17T00:22:51;95315.06;;;3.94;71.81
6425;BME280;12193;42.642;23.384;2023-02-17T00:25:21;95312.38;;;3.86;71.64
6425;BME280;12193;42.642;23.384;2023-02-17T00:27:50;95312.41;;;3.76;71.92
6425;BME280;12193;42.642;23.384;2023-02-17T00:30:22;95299.84;;;3.64;72.65
6425;BME280;12193;42.642;23.384;2023-02-17T00:32:51;95306.88;;;3.62;72.92
6425;BME280;12193;42.642;23.384;2023-02-17T00:35:21;95295.72;;;3.90;71.62
6425;BME280;12193;42.642;23.384;2023-02-17T00:37:50;95300.88;;;3.80;71.61
6425;BME280;12193;42.642;23.384;2023-02-17T00:40:20;95289.44;;;3.65;72.40
6425;BME280;12193;42.642;23.384;2023-02-17T00:42:49;95284.94;;;3.77;71.84
6425;BME280;12193;42.642;23.384;2023-02-17T00:45:22;95285.75;;;3.77;72.23
6425;BME280;12193;42.642;23.384;2023-02-17T00:47:52;95288.88;;;3.71;71.87
6425;BME280;12193;42.642;23.384;2023-02-17T00:50:21;95290.84;;;3.87;71.50
6425;BME280;12193;42.642;23.384;2023-02-17T00:52:50;95290.56;;;3.90;71.56
6425;BME280;12193;42.642;23.384;2023-02-17T00:55:19;95291.78;;;3.86;71.50
6425;BME280;12193;42.642;23.384;2023-02-17T00:57:49;95292.06;;;3.83;71.69
6425;BME280;12193;42.642;23.384;2023-02-17T01:00:19;95284.19;;;3.94;71.30
6425;BME280;12193;42.642;23.384;2023-02-17T01:02:51;95281.38;;;3.87;71.36
6425;BME280;12193;42.642;23.384;2023-02-17T01:05:20;95286.69;;;3.76;71.63
6425;BME280;12193;42.642;23.384;2023-02-17T04:08:46;95261.66;;;2.09;87.43
6425;BME280;12193;42.642;23.384;2023-02-17T04:11:16;95267.50;;;2.21;86.82
6425;BME280;12193;42.642;23.384;2023-02-17T04:13:45;95253.56;;;2.14;87.29
6425;BME280;12193;42.642;23.384;2023-02-17T04:16:15;95264.06;;;2.11;87.55
6425;BME280;12193;42.642;23.384;2023-02-17T04:18:44;95262.63;;;2.18;87.12
6425;BME280;12193;42.642;23.384;2023-02-17T04:21:13;95259.56;;;2.43;86.06
6425;BME280;12193;42.642;23.384;2023-02-17T04:23:45;95257.25;;;2.30;86.46
6425;BME280;12193;42.642;23.384;2023-02-17T04:26:15;95262.66;;;2.46;85.67
6425;BME280;12193;42.642;23.384;2023-02-17T04:28:44;95274.38;;;2.39;85.58
6425;BME280;12193;42.642;23.384;2023-02-17T04:31:13;95266.00;;;2.37;86.09
6425;BME280;12193;42.642;23.384;2023-02-17T04:33:43;95258.03;;;2.31;85.86
6425;BME280;12193;42.642;23.384;2023-02-17T04:36:12;95266.38;;;2.14;86.66
6425;BME280;12193;42.642;23.384;2023-02-17T04:38:41;95253.41;;;2.15;86.95
6425;BME280;12193;42.642;23.384;2023-02-17T04:41:14;95261.69;;;2.19;87.02
6425;BME280;12193;42.642;23.384;2023-02-17T04:43:43;95267.88;;;2.26;86.92
6425;BME280;12193;42.642;23.384;2023-02-17T04:46:13;95266.97;;;2.55;85.28
6425;BME280;12193;42.642;23.384;2023-02-17T04:48:42;95272.78;;;2.57;84.60
6425;BME280;12193;42.642;23.384;2023-02-17T04:51:12;95267.91;;;2.45;85.28
6425;BME280;12193;42.642;23.384;2023-02-17T04:53:41;95266.16;;;2.45;85.58
6425;BME280;12193;42.642;23.384;2023-02-17T04:56:12;95267.53;;;2.49;85.59
6425;BME280;12193;42.642;23.384;2023-02-17T04:58:42;95262.25;;;2.51;85.58
6425;BME280;12193;42.642;23.384;2023-02-17T05:01:11;95255.91;;;2.36;86.17
6425;BME280;12193;42.642;23.384;2023-02-17T05:03:40;95264.81;;;2.41;86.44
6425;BME280;12193;42.642;23.384;2023-02-17T05:06:10;95273.72;;;2.47;85.63
6425;BME280;12193;42.642;23.384;2023-02-17T05:08:39;95279.53;;;2.49;85.43
6425;BME280;12193;42.642;23.384;2023-02-17T05:11:09;95294.53;;;2.53;84.83
6425;BME280;12193;42.642;23.384;2023-02-17T05:13:41;95294.81;;;2.60;83.92
6425;BME280;12193;42.642;23.384;2023-02-17T05:16:10;95289.00;;;2.58;83.78
6425;BME280;12193;42.642;23.384;2023-02-17T05:18:39;95274.13;;;2.42;84.46
6425;BME280;12193;42.642;23.384;2023-02-17T05:21:08;95288.31;;;2.65;83.94
6425;BME280;12193;42.642;23.384;2023-02-17T05:23:37;95285.91;;;2.73;83.67
6425;BME280;12193;42.642;23.384;2023-02-17T05:26:07;95299.53;;;2.93;82.29
6425;BME280;12193;42.642;23.384;2023-02-17T05:28:36;95310.34;;;2.77;82.58
6425;BME280;12193;42.642;23.384;2023-02-17T05:31:08;95313.31;;;2.82;81.98
6425;BME280;12193;42.642;23.384;2023-02-17T05:33:38;95303.19;;;2.62;82.61
6425;BME280;12193;42.642;23.384;2023-02-17T05:36:08;95303.88;;;2.54;82.74
6425;BME280;12193;42.642;23.384;2023-02-17T05:38:39;95305.06;;;2.50;83.32
6425;BME280;12193;42.642;23.384;2023-02-17T05:41:10;95317.72;;;2.42;84.29
6425;BME280;12193;42.642;23.384;2023-02-17T05:43:39;95308.13;;;2.35;84.77
6425;BME280;12193;42.642;23.384;2023-02-17T05:46:11;95324.75;;;2.40;85.20
6425;BME280;12193;42.642;23.384;2023-02-17T05:48:41;95316.97;;;2.70;84.16
6425;BME280;12193;42.642;23.384;2023-02-17T05:51:11;95335.06;;;2.88;82.72
6425;BME280;12193;42.642;23.384;2023-02-17T05:53:42;95332.75;;;2.75;82.92
6425;BME280;12193;42.642;23.384;2023-02-17T05:56:11;95321.69;;;2.84;82.39
6425;BME280;12193;42.642;23.384;2023-02-17T05:58:41;95327.00;;;3.11;81.44
6425;BME280;12193;42.642;23.384;2023-02-17T06:01:13;95327.91;;;3.29;80.64
6425;BME280;12193;42.642;23.384;2023-02-17T06:03:42;95312.91;;;3.34;80.44
6425;BME280;12193;42.642;23.384;2023-02-17T06:06:11;95325.06;;;3.51;79.58
6425;BME280;12193;42.642;23.384;2023-02-17T06:08:40;95330.38;;;3.76;78.19
6425;BME280;12193;42.642;23.384;2023-02-17T06:11:10;95330.38;;;3.86;77.48
6425;BME280;12193;42.642;23.384;2023-02-17T06:13:39;95334.53;;;3.96;76.66
6425;BME280;12193;42.642;23.384;2023-02-17T06:16:08;95336.63;;;4.10;75.01
6425;BME280;12193;42.642;23.384;2023-02-17T06:18:40;95331.41;;;4.02;74.50
6425;BME280;12193;42.642;23.384;2023-02-17T06:21:09;95329.03;;;3.72;75.73
6425;BME280;12193;42.642;23.384;2023-02-17T06:23:39;95337.97;;;4.14;74.60
6425;BME280;12193;42.642;23.384;2023-02-17T06:26:08;95336.47;;;4.48;72.75
6425;BME280;12193;42.642;23.384;2023-02-17T06:28:37;95324.16;;;4.69;70.89
6425;BME280;12193;42.642;23.384;2023-02-17T06:31:07;95338.56;;;4.79;71.12
6425;BME280;12193;42.642;23.384;2023-02-17T06:33:36;95337.31;;;4.83;69.83
6425;BME280;12193;42.642;23.384;2023-02-17T06:36:08;95347.16;;;5.75;67.20
6425;BME280;12193;42.642;23.384;2023-02-17T06:38:37;95338.84;;;6.97;62.12
6425;BME280;12193;42.642;23.384;2023-02-17T06:41:07;95341.97;;;7.88;57.90
6425;BME280;12193;42.642;23.384;2023-02-17T06:43:36;95352.91;;;8.29;55.25
6425;BME280;12193;42.642;23.384;2023-02-17T06:46:05;95344.75;;;8.48;53.54
6425;BME280;12193;42.642;23.384;2023-02-17T06:48:34;95349.69;;;8.27;55.11
6425;BME280;12193;42.642;23.384;2023-02-17T06:51:04;95342.38;;;8.39;53.98
6425;BME280;12193;42.642;23.384;2023-02-17T06:53:36;95354.97;;;8.88;55.02
6425;BME280;12193;42.642;23.384;2023-02-17T06:56:06;95349.50;;;9.14;53.54
6425;BME280;12193;42.642;23.384;2023-02-17T06:58:35;95352.16;;;8.98;54.50
6425;BME280;12193;42.642;23.384;2023-02-17T07:01:05;95362.88;;;8.56;55.44
6425;BME280;12193;42.642;23.384;2023-02-17T07:03:35;95351.19;;;7.90;57.94
6425;BME280;12193;42.642;23.384;2023-02-17T07:06:04;95357.50;;;7.88;58.32
6425;BME280;12193;42.642;23.384;2023-02-17T07:08:37;95356.84;;;9.02;55.42
6425;BME280;12193;42.642;23.384;2023-02-17T07:11:06;95361.22;;;10.14;51.69
6425;BME280;12193;42.642;23.384;2023-02-17T07:13:36;95362.06;;;9.69;50.66
6425;BME280;12193;42.642;23.384;2023-02-17T07:16:06;95360.81;;;10.68;49.58
6425;BME280;12193;42.642;23.384;2023-02-17T07:18:36;95356.13;;;10.92;48.25
6425;BME280;12193;42.642;23.384;2023-02-17T07:21:06;95363.78;;;9.77;52.30
6425;BME280;12193;42.642;23.384;2023-02-17T07:23:38;95359.28;;;11.23;48.29
6425;BME280;12193;42.642;23.384;2023-02-17T07:26:10;95360.78;;;11.32;47.46
6425;BME280;12193;42.642;23.384;2023-02-17T07:28:40;95366.06;;;11.03;47.07
6425;BME280;12193;42.642;23.384;2023-02-17T07:31:11;95364.47;;;11.38;46.48
6425;BME280;12193;42.642;23.384;2023-02-17T07:33:42;95366.44;;;10.71;49.03
6425;BME280;12193;42.642;23.384;2023-02-17T07:36:15;95367.53;;;12.31;44.54
6425;BME280;12193;42.642;23.384;2023-02-17T07:38:47;95362.41;;;12.17;44.50
6425;BME280;12193;42.642;23.384;2023-02-17T07:41:18;95362.34;;;11.62;45.38
6425;BME280;12193;42.642;23.384;2023-02-17T07:43:53;95362.31;;;12.58;43.67
6425;BME280;12193;42.642;23.384;2023-02-17T07:46:23;95370.84;;;12.73;42.64
6425;BME280;12193;42.642;23.384;2023-02-17T07:48:52;95368.44;;;13.12;42.39
6425;BME280;12193;42.642;23.384;2023-02-17T07:51:23;95367.09;;;14.28;40.50
6425;BME280;12193;42.642;23.384;2023-02-17T07:53:55;95367.56;;;12.65;42.66
6425;BME280;12193;42.642;23.384;2023-02-17T07:56:24;95363.00;;;13.86;40.35
6425;BME280;12193;42.642;23.384;2023-02-17T07:58:55;95351.94;;;12.10;44.53
6425;BME280;12193;42.642;23.384;2023-02-17T08:01:25;95359.22;;;12.82;43.21
6425;BME280;12193;42.642;23.384;2023-02-17T08:03:55;95359.63;;;14.05;40.28
6425;BME280;12193;42.642;23.384;2023-02-17T08:06:25;95355.06;;;13.35;41.46
6425;BME280;12193;42.642;23.384;2023-02-17T08:08:57;95349.44;;;15.06;38.37
6425;BME280;12193;42.642;23.384;2023-02-17T08:11:39;95363.44;;;14.35;39.96
6425;BME280;12193;42.642;23.384;2023-02-17T08:14:23;95371.69;;;14.52;39.11
6425;BME280;12193;42.642;23.384;2023-02-17T08:16:52;95357.97;;;14.69;38.88
6425;BME280;12193;42.642;23.384;2023-02-17T08:19:22;95359.19;;;13.95;40.52
6425;BME280;12193;42.642;23.384;2023-02-17T08:21:52;95357.16;;;13.78;41.20
6425;BME280;12193;42.642;23.384;2023-02-17T08:24:25;95354.56;;;13.84;40.46
6425;BME280;12193;42.642;23.384;2023-02-17T08:26:54;95366.03;;;14.48;39.20
6425;BME280;12193;42.642;23.384;2023-02-17T08:29:23;95355.75;;;13.88;39.93
6425;BME280;12193;42.642;23.384;2023-02-17T08:31:52;95355.81;;;14.40;39.76
6425;BME280;12193;42.642;23.384;2023-02-17T08:34:22;95357.41;;;14.15;39.68
6425;BME280;12193;42.642;23.384;2023-02-17T08:36:51;95358.38;;;14.72;38.72
6425;BME280;12193;42.642;23.384;2023-02-17T08:39:21;95349.13;;;15.33;36.98
6425;BME280;12193;42.642;23.384;2023-02-17T08:41:54;95350.75;;;15.21;37.09
6425;BME280;12193;42.642;23.384;2023-02-17T08:44:23;95345.94;;;15.68;36.60
6425;BME280;12193;42.642;23.384;2023-02-17T08:46:53;95352.13;;;14.80;38.05
6425;BME280;12193;42.642;23.384;2023-02-17T08:49:24;95352.13;;;14.73;39.13
6425;BME280;12193;42.642;23.384;2023-02-17T08:51:55;95343.94;;;15.14;37.56
6425;BME280;12193;42.642;23.384;2023-02-17T08:54:24;95346.16;;;15.61;36.75
6425;BME280;12193;42.642;23.384;2023-02-17T08:56:56;95340.06;;;15.29;36.95
6425;BME280;12193;42.642;23.384;2023-02-17T08:59:26;95356.44;;;14.36;38.41
6425;BME280;12193;42.642;23.384;2023-02-17T09:01:56;95355.69;;;14.92;37.38
6425;BME280;12193;42.642;23.384;2023-02-17T09:04:25;95340.47;;;15.70;36.66
6425;BME280;12193;42.642;23.384;2023-02-17T09:06:54;95335.91;;;15.02;37.95
6425;BME280;12193;42.642;23.384;2023-02-17T09:09:25;95349.34;;;13.97;39.29
6425;BME280;12193;42.642;23.384;2023-02-17T09:11:57;95343.34;;;14.42;39.12
6425;BME280;12193;42.642;23.384;2023-02-17T09:14:27;95352.13;;;14.60;38.93
6425;BME280;12193;42.642;23.384;2023-02-17T09:16:56;95342.28;;;15.19;37.22
6425;BME280;12193;42.642;23.384;2023-02-17T09:19:26;95347.28;;;16.33;34.90
6425;BME280;12193;42.642;23.384;2023-02-17T09:21:55;95337.13;;;15.87;35.24
6425;BME280;12193;42.642;23.384;2023-02-17T09:24:24;95330.38;;;15.23;36.76
6425;BME280;12193;42.642;23.384;2023-02-17T09:26:53;95332.00;;;15.31;36.39
6425;BME280;12193;42.642;23.384;2023-02-17T09:29:26;95338.38;;;14.97;37.07
6425;BME280;12193;42.642;23.384;2023-02-17T09:31:55;95324.47;;;15.47;36.34
6425;BME280;12193;42.642;23.384;2023-02-17T09:34:24;95330.16;;;16.24;34.64
6425;BME280;12193;42.642;23.384;2023-02-17T09:36:53;95328.78;;;15.22;35.89
6425;BME280;12193;42.642;23.384;2023-02-17T09:39:22;95327.28;;;16.07;34.88
6425;BME280;12193;42.642;23.384;2023-02-17T09:41:53;95323.72;;;15.95;35.08
6425;BME280;12193;42.642;23.384;2023-02-17T09:44:31;95322.78;;;16.63;33.89
6425;BME280;12193;42.642;23.384;2023-02-17T09:47:08;95322.66;;;15.78;35.41
6425;BME280;12193;42.642;23.384;2023-02-17T09:49:44;95324.03;;;16.78;33.79
6425;BME280;12193;42.642;23.384;2023-02-17T09:52:20;95324.38;;;17.00;33.48
6425;BME280;12193;42.642;23.384;2023-02-17T09:55:00;95323.34;;;18.07;32.05
6425;BME280;12193;42.642;23.384;2023-02-17T09:57:34;95313.00;;;18.23;30.79
6425;BME280;12193;42.642;23.384;2023-02-17T10:00:11;95308.78;;;17.52;32.24
6425;BME280;12193;42.642;23.384;2023-02-17T10:02:46;95321.28;;;17.97;31.50
6425;BME280;12193;42.642;23.384;2023-02-17T10:05:21;95308.31;;;18.48;31.24
6425;BME280;12193;42.642;23.384;2023-02-17T10:07:54;95316.09;;;18.66;30.00
6425;BME280;12193;42.642;23.384;2023-02-17T10:10:27;95300.56;;;17.49;30.90
6425;BME280;12193;42.642;23.384;2023-02-17T10:13:01;95297.38;;;17.99;27.63
6425;BME280;12193;42.642;23.384;2023-02-17T10:15:35;95297.00;;;17.84;27.86
6425;BME280;12193;42.642;23.384;2023-02-17T10:18:10;95275.94;;;19.10;25.43
6425;BME280;12193;42.642;23.384;2023-02-17T10:20:45;95281.28;;;19.82;24.77
6425;BME280;12193;42.642;23.384;2023-02-17T10:23:19;95289.88;;;19.61;24.01
6425;BME280;12193;42.642;23.384;2023-02-17T10:25:57;95272.75;;;20.41;23.78
6425;BME280;12193;42.642;23.384;2023-02-17T10:28:49;95281.28;;;20.64;23.52
6425;BME280;12193;42.642;23.384;2023-02-17T10:31:27;95272.78;;;20.62;23.33
6425;BME280;12193;42.642;23.384;2023-02-17T10:34:03;95267.00;;;20.44;23.40
6425;BME280;12193;42.642;23.384;2023-02-17T10:36:43;95258.44;;;20.75;22.43
6425;BME280;12193;42.642;23.384;2023-02-17T10:39:29;95246.94;;;20.81;22.67
6425;BME280;12193;42.642;23.384;2023-02-17T10:42:03;95251.72;;;20.29;22.99
6425;BME280;12193;42.642;23.384;2023-02-17T10:44:35;95259.03;;;20.60;22.68
6425;BME280;12193;42.642;23.384;2023-02-17T10:47:08;95249.25;;;20.77;22.46
6425;BME280;12193;42.642;23.384;2023-02-17T10:49:42;95235.50;;;20.59;22.12
6425;BME280;12193;42.642;23.384;2023-02-17T10:52:15;95243.50;;;20.64;22.20
6425;BME280;12193;42.642;23.384;2023-02-17T10:54:49;95231.75;;;20.55;22.77
6425;BME280;12193;42.642;23.384;2023-02-17T10:57:21;95224.44;;;20.07;23.35
6425;BME280;12193;42.642;23.384;2023-02-17T10:59:53;95236.53;;;20.36;23.15
6425;BME280;12193;42.642;23.384;2023-02-17T11:02:32;95233.16;;;20.24;22.94
6425;BME280;12193;42.642;23.384;2023-02-17T11:05:03;95233.09;;;20.03;23.15
6425;BME280;12193;42.642;23.384;2023-02-17T11:07:34;95232.94;;;19.49;23.44
6425;BME280;12193;42.642;23.384;2023-02-17T11:10:20;95231.88;;;18.94;24.19
6425;BME280;12193;42.642;23.384;2023-02-17T11:12:50;95227.66;;;19.49;24.08
6425;BME280;12193;42.642;23.384;2023-02-17T11:15:24;95232.75;;;19.39;23.69
6425;BME280;12193;42.642;23.384;2023-02-17T11:17:58;95227.25;;;19.40;24.13
6425;BME280;12193;42.642;23.384;2023-02-17T11:20:32;95220.56;;;19.21;24.10
6425;BME280;12193;42.642;23.384;2023-02-17T11:23:07;95222.22;;;19.55;23.89
6425;BME280;12193;42.642;23.384;2023-02-17T11:25:39;95219.81;;;18.98;24.43
6425;BME280;12193;42.642;23.384;2023-02-17T11:28:11;95218.81;;;19.55;24.54
6425;BME280;12193;42.642;23.384;2023-02-17T11:30:49;95213.06;;;19.74;24.08
6425;BME280;12193;42.642;23.384;2023-02-17T11:33:23;95214.94;;;19.46;24.55
6425;BME280;12193;42.642;23.384;2023-02-17T11:35:57;95215.97;;;19.45;24.13
6425;BME280;12193;42.642;23.384;2023-02-17T11:38:27;95205.88;;;20.19;23.43
6425;BME280;12193;42.642;23.384;2023-02-17T11:40:59;95207.44;;;19.54;23.70
6425;BME280;12193;42.642;23.384;2023-02-17T11:43:30;95203.97;;;20.14;23.62
6425;BME280;12193;42.642;23.384;2023-02-17T11:46:14;95205.97;;;20.07;23.84
6425;BME280;12193;42.642;23.384;2023-02-17T11:49:02;95201.81;;;20.49;23.47
6425;BME280;12193;42.642;23.384;2023-02-17T11:51:47;95207.47;;;20.58;23.78
6425;BME280;12193;42.642;23.384;2023-02-17T11:54:23;95200.47;;;19.48;24.72
6425;BME280;12193;42.642;23.384;2023-02-17T11:57:10;95186.94;;;19.73;24.66
6425;BME280;12193;42.642;23.384;2023-02-17T11:59:56;95190.06;;;20.02;24.38
6425;BME280;12193;42.642;23.384;2023-02-17T12:02:45;95190.13;;;20.24;23.78
6425;BME280;12193;42.642;23.384;2023-02-17T12:05:25;95188.69;;;20.16;24.21
6425;BME280;12193;42.642;23.384;2023-02-17T12:08:05;95181.03;;;19.38;25.17
6425;BME280;12193;42.642;23.384;2023-02-17T12:10:46;95175.31;;;18.85;26.14
6425;BME280;12193;42.642;23.384;2023-02-17T12:13:30;95176.97;;;18.63;26.33
6425;BME280;12193;42.642;23.384;2023-02-17T12:16:13;95177.53;;;19.32;25.90
6425;BME280;12193;42.642;23.384;2023-02-17T12:18:57;95172.78;;;19.06;25.41
6425;BME280;12193;42.642;23.384;2023-02-17T12:21:40;95167.38;;;19.41;25.62
6425;BME280;12193;42.642;23.384;2023-02-17T12:24:23;95167.22;;;19.47;24.94
6425;BME280;12193;42.642;23.384;2023-02-17T12:27:00;95157.94;;;19.28;25.48
6425;BME280;12193;42.642;23.384;2023-02-17T12:29:46;95152.59;;;18.56;26.29
6425;BME280;12193;42.642;23.384;2023-02-17T12:32:26;95166.63;;;17.88;27.36
6425;BME280;12193;42.642;23.384;2023-02-17T12:35:09;95146.91;;;18.36;26.83
6425;BME280;12193;42.642;23.384;2023-02-17T12:37:48;95143.81;;;18.51;26.57
6425;BME280;12193;42.642;23.384;2023-02-17T12:40:29;95147.59;;;18.43;26.78
6425;BME280;12193;42.642;23.384;2023-02-17T12:43:04;95145.81;;;17.64;27.38
6425;BME280;12193;42.642;23.384;2023-02-17T12:45:37;95136.78;;;17.19;28.25
6425;BME280;12193;42.642;23.384;2023-02-17T12:48:14;95144.78;;;17.12;28.61
6425;BME280;12193;42.642;23.384;2023-02-17T12:50:51;95142.66;;;16.91;29.12
6425;BME280;12193;42.642;23.384;2023-02-17T12:53:35;95135.44;;;16.87;28.82
6425;BME280;12193;42.642;23.384;2023-02-17T12:56:25;95135.66;;;16.85;28.82
6425;BME280;12193;42.642;23.384;2023-02-17T12:59:09;95129.38;;;16.86;29.49
6425;BME280;12193;42.642;23.384;2023-02-17T13:01:45;95130.78;;;16.60;28.74
6425;BME280;12193;42.642;23.384;2023-02-17T13:04:17;95127.19;;;16.54;29.29
6425;BME280;12193;42.642;23.384;2023-02-17T13:06:52;95116.22;;;16.46;29.79
6425;BME280;12193;42.642;23.384;2023-02-17T13:09:32;95125.03;;;16.33;29.57
6425;BME280;12193;42.642;23.384;2023-02-17T13:12:15;95131.09;;;16.34;29.34
6425;BME280;12193;42.642;23.384;2023-02-17T13:14:46;95126.53;;;16.23;29.59
6425;BME280;12193;42.642;23.384;2023-02-17T13:17:29;95118.56;;;16.36;29.43
6425;BME280;12193;42.642;23.384;2023-02-17T13:20:26;95124.75;;;16.05;29.77
6425;BME280;12193;42.642;23.384;2023-02-17T13:23:07;95124.84;;;16.35;29.79
6425;BME280;12193;42.642;23.384;2023-02-17T13:25:39;95130.16;;;16.46;30.20
6425;BME280;12193;42.642;23.384;2023-02-17T13:28:29;95123.16;;;16.40;29.55
6425;BME280;12193;42.642;23.384;2023-02-17T13:31:12;95123.78;;;16.54;29.73
6425;BME280;12193;42.642;23.384;2023-02-17T13:33:47;95119.66;;;16.46;28.91
6425;BME280;12193;42.642;23.384;2023-02-17T13:36:33;95116.44;;;16.44;29.30
6425;BME280;12193;42.642;23.384;2023-02-17T13:39:05;95108.53;;;16.62;28.98
6425;BME280;12193;42.642;23.384;2023-02-17T13:41:47;95107.84;;;16.67;28.80
6425;BME280;12193;42.642;23.384;2023-02-17T13:44:25;95115.09;;;16.53;28.69
6425;BME280;12193;42.642;23.384;2023-02-17T13:46:58;95110.53;;;15.95;28.70
6425;BME280;12193;42.642;23.384;2023-02-17T13:49:30;95106.97;;;16.07;29.07
6425;BME280;12193;42.642;23.384;2023-02-17T13:52:16;95108.50;;;15.97;28.67
6425;BME280;12193;42.642;23.384;2023-02-17T13:54:51;95105.72;;;15.92;28.41
6425;BME280;12193;42.642;23.384;2023-02-17T13:57:28;95108.34;;;16.10;28.36
6425;BME280;12193;42.642;23.384;2023-02-17T14:00:08;95099.31;;;16.06;27.84
6425;BME280;12193;42.642;23.384;2023-02-17T14:02:44;95109.00;;;15.87;28.16
6425;BME280;12193;42.642;23.384;2023-02-17T14:05:19;95111.41;;;16.07;28.29
6425;BME280;12193;42.642;23.384;2023-02-17T14:07:49;95105.00;;;16.03;27.88
6425;BME280;12193;42.642;23.384;2023-02-17T14:10:21;95106.97;;;15.89;27.89
6425;BME280;12193;42.642;23.384;2023-02-17T14:12:54;95106.47;;;15.57;28.15
6425;BME280;12193;42.642;23.384;2023-02-17T14:15:26;95105.47;;;15.58;27.91
6425;BME280;12193;42.642;23.384;2023-02-17T14:17:55;95115.59;;;15.54;27.66
6425;BME280;12193;42.642;23.384;2023-02-17T14:20:30;95113.91;;;15.60;27.82
6425;BME280;12193;42.642;23.384;2023-02-17T14:23:05;95110.28;;;15.61;27.96
6425;BME280;12193;42.642;23.384;2023-02-17T14:25:38;95105.47;;;15.58;28.06
6425;BME280;12193;42.642;23.384;2023-02-17T14:28:23;95118.22;;;15.54;28.82
6425;BME280;12193;42.642;23.384;2023-02-17T14:30:53;95118.53;;;15.40;28.91
6425;BME280;12193;42.642;23.384;2023-02-17T14:33:23;95111.47;;;15.40;29.48
6425;BME280;12193;42.642;23.384;2023-02-17T14:35:55;95118.13;;;15.12;29.78
6425;BME280;12193;42.642;23.384;2023-02-17T14:38:26;95123.00;;;14.77;30.44
6425;BME280;12193;42.642;23.384;2023-02-17T14:40:57;95121.72;;;14.56;30.86
6425;BME280;12193;42.642;23.384;2023-02-17T14:43:29;95117.19;;;14.69;30.67
6425;BME280;12193;42.642;23.384;2023-02-17T14:45:59;95114.81;;;14.67;31.20
6425;BME280;12193;42.642;23.384;2023-02-17T14:48:28;95116.50;;;14.49;31.92
6425;BME280;12193;42.642;23.384;2023-02-17T14:50:57;95117.50;;;14.55;31.83
6425;BME280;12193;42.642;23.384;2023-02-17T14:53:29;95118.88;;;14.57;32.52
6425;BME280;12193;42.642;23.384;2023-02-17T14:56:01;95118.09;;;14.57;32.27
6425;BME280;12193;42.642;23.384;2023-02-17T14:58:34;95114.44;;;14.64;32.42
6425;BME280;12193;42.642;23.384;2023-02-17T15:01:04;95114.72;;;14.50;33.05
6425;BME280;12193;42.642;23.384;2023-02-17T15:03:33;95124.44;;;14.36;33.56
6425;BME280;12193;42.642;23.384;2023-02-17T15:06:04;95109.63;;;14.17;33.62
6425;BME280;12193;42.642;23.384;2023-02-17T15:08:34;95111.84;;;14.01;34.06
6425;BME280;12193;42.642;23.384;2023-02-17T15:11:04;95113.69;;;14.00;34.32
6425;BME280;12193;42.642;23.384;2023-02-17T15:13:36;95119.53;;;13.96;34.80
6425;BME280;12193;42.642;23.384;2023-02-17T15:16:06;95118.56;;;13.77;34.83
6425;BME280;12193;42.642;23.384;2023-02-17T15:18:35;95117.59;;;13.65;35.16
6425;BME280;12193;42.642;23.384;2023-02-17T15:21:16;95119.41;;;13.46;35.31
6425;BME280;12193;42.642;23.384;2023-02-17T15:23:46;95130.50;;;13.35;35.74
6425;BME280;12193;42.642;23.384;2023-02-17T15:26:16;95122.84;;;13.20;35.80
6425;BME280;12193;42.642;23.384;2023-02-17T15:28:48;95129.69;;;13.08;36.15
6425;BME280;12193;42.642;23.384;2023-02-17T15:31:19;95119.44;;;13.07;36.25
6425;BME280;12193;42.642;23.384;2023-02-17T15:33:54;95129.50;;;12.97;36.83
6425;BME280;12193;42.642;23.384;2023-02-17T15:36:24;95132.09;;;12.90;36.74
6425;BME280;12193;42.642;23.384;2023-02-17T15:38:54;95137.25;;;12.77;36.59
6425;BME280;12193;42.642;23.384;2023-02-17T15:41:25;95134.44;;;12.79;36.96
6425;BME280;12193;42.642;23.384;2023-02-17T15:44:00;95134.25;;;12.87;36.84
6425;BME280;12193;42.642;23.384;2023-02-17T15:46:32;95141.84;;;12.62;37.21
6425;BME280;12193;42.642;23.384;2023-02-17T15:49:01;95151.66;;;12.54;37.49
6425;BME280;12193;42.642;23.384;2023-02-17T15:51:31;95140.34;;;12.28;37.91
6425;BME280;12193;42.642;23.384;2023-02-17T15:54:01;95149.16;;;12.33;38.23
6425;BME280;12193;42.642;23.384;2023-02-17T15:56:39;95162.53;;;12.17;38.25
6425;BME280;12193;42.642;23.384;2023-02-17T15:59:15;95165.59;;;12.27;38.30
6425;BME280;12193;42.642;23.384;2023-02-17T16:01:45;95166.38;;;12.21;38.29
6425;BME280;12193;42.642;23.384;2023-02-17T16:04:16;95170.97;;;12.13;38.85
6425;BME280;12193;42.642;23.384;2023-02-17T16:06:45;95176.50;;;12.03;38.82
6425;BME280;12193;42.642;23.384;2023-02-17T16:09:15;95179.44;;;11.94;39.27
6425;BME280;12193;42.642;23.384;2023-02-17T16:11:47;95178.34;;;11.75;39.75
6425;BME280;12193;42.642;23.384;2023-02-17T16:14:23;95177.25;;;11.63;40.11
6425;BME280;12193;42.642;23.384;2023-02-17T16:16:54;95186.91;;;11.69;40.10
6425;BME280;12193;42.642;23.384;2023-02-17T16:19:23;95183.03;;;11.59;40.12
6425;BME280;12193;42.642;23.384;2023-02-17T16:21:53;95190.44;;;11.55;40.21
6425;BME280;12193;42.642;23.384;2023-02-17T16:24:23;95189.13;;;11.45;40.47
6425;BME280;12193;42.642;23.384;2023-02-17T16:26:53;95182.25;;;11.38;40.40
6425;BME280;12193;42.642;23.384;2023-02-17T16:29:25;95182.31;;;11.44;40.01
6425;BME280;12193;42.642;23.384;2023-02-17T16:31:54;95190.69;;;11.39;39.83